Airfield :







YOU CAN JOIN US ON...

 
LOGIN :

Register | Disclaimer

   EN    FR    IT 

 









Legend :    VFR   Marginal VFR   IFR   Intensive IFR   Very Intensive IFR
Visi :
Ceiling :
>= 8 km
>= 3000ft
5 to 8 km
1000 to 3000 ft
1500m to 5 km
500 to 1000 ft
800 to 1500m
200 to 500 ft
< 800m
< 200 ft
Symbols :   Thunderstorms  Fog  Heavy snow  Heavy precipitations  Wind > 20 kt






- Airport Elevation : 10 ft
- IATA code : ORG


SMZO - Zorg en Hoop

CURRENT METAR :
  • 302000Z 04002KT 9999 -SHRA FEW010 FEW015CB 27/25 Q1009 NOSIG

EXPIRED METARs :
  • 301900Z 02004KT 9999 VCSH SCT010 FEW015CB 28/24 Q1009 NOSIG
  • 301800Z 04002KT 9999 SCT010 FEW018CB 29/24 Q1009 NOSIG

TAF TAF SMZO
Valid from the 30 at 18:00 until the 01 at 18:00 UTC


301600Z 3018/0118 07008KT 9999 SCT015 TX31/0117Z TN24/0107Z
TEMPO 3018/3019 05016KT 4000 SHRA FEW015CB SCT020
PROB30 0108/0110 VRB01KT 3000 BR SCT008
FM011100 09006KT 9999 SCT012
TEMPO 0115/0118 5000 SHRA FEW015CB SCT025
SMPM FIR / South America



MET'MAP, your aeronautical weather chart ! - Copyright ORBIFLY December 2007 - Disclaimer

ORBIFLY MET'MAP TEAM :

Programming & Development : Alexandra Zaïnal
Concept & original design : Baudouin d'Aumeries
Assistance for programming : Marc-Olivier Méhu
Technical & hardware support : Manuel Goepfert

Contact : metmap@orbifly.com




SOURCES & CREDITS :

   NOAA